Addison, TX (75001)

4:56 AM CDT on May 26, 2015 (GMT -0500)
Prestonwood | | Change Station
CLOSE
Current Station
Personal Weather Station
Location: Dallas, TX
Elevation: 636 ft
Nearby Weather Stations

Elev 636 ft 32.96 °N, 96.80 °W | Updated 13 seconds ago

Overcast
Overcast
64.3 °F
Feels Like 64.3 °F
N
6.0
Wind Variable Wind from SSW
Gusts 6.0 mph

Today
High -- | Low -- °F
--% Chance of Precip.
Yesterday
High -- | Low -- °F
Precip. -- in
6:21 AM 8:27 PM
First Quarter, 56% visible
Pressure 29.95 in
Visibility 10.0 miles
Clouds Overcast 800 ft
Dew Point 64 °F
Humidity 98%
Rainfall 0.00 in
Snow Depth Not available.
UV 0 out of 12
Pollen 4.70 out of 12
Air Quality Not available.
Flu Activity Sporadic
METAR KADS 260935Z AUTO 15008KT 10SM OVC008 18/18 A2995 RMK AO2 T01840184

More Conditions Fewer Conditions

Pressure 29.95 in
Visibility 10.0 miles
Clouds Overcast 800 ft
Dew Point 64 °F
Humidity 98%
Rainfall 0.00 in
Snow Depth Not available.
UV 0 out of 12
Pollen 4.70 out of 12
Air Quality Not available.
Flu Activity Sporadic
METAR KADS 260935Z AUTO 15008KT 10SM OVC008 18/18 A2995 RMK AO2 T01840184

More Conditions Fewer Conditions

10-Day Weather Forecast

Almanac

Astronomy

May. 26, 2015 Rise Set
Actual Time
Civil Twilight
Nautical Twilight
Astronomical Twilight
Moon
Length of Visible Light
Length of Day
Tomorrow will be .
, % of the Moon is Illuminated

Today's Extremes

State Highs State Lows

Community

WunderPhotos

Upload Photos

1,824,302 photos uploaded!

WunderBlogs® & News

Nearby

Air Quality

  Air Quality AQ Index Pollutant
Not available.

Snow Depth

Station Depth Elevation

Earthquake Activity

City Distance Mag. Time & Date
Minimum magnitude displayed is 2.5.

Coastal Water Temperatures

Place Temperature

Stations

Nearby Weather Stations

Station Location Temp. Windchill Dew Point Humidity Wind Precip. Elev Updated Type
                   
Hydrologic Statement
Statement as of 3:33 AM CDT on May 26, 2015

Forecast information for
West Fork Trinity River at Grand Prairie.
* At 0230 am Tuesday the stage was 23.53 feet.
* Flood stage is 27.0 feet.
* No flooding is currently forecast.
* Forecast... the river will rise to near 23.4 feet Tuesday morning